Details From KCTY - Cross City
To KALO - Waterloo Rgnl
Flight Number -
Tags Real Decoded
Created
Modified
Stats Distance 906 nm / 1,679 km
Max Altitude 0 ft / 0 m
Waypoints 4
Social Downloads 0
Likes 0
Share VATSIM

Download

Looking for another format? Having issues loading an existing format? Contact us
Advertisement - Login to hide

Notes

Decoded

Route

CTY STL IOW ALO

ID Type Via Altitude Latitude Longitude Leg Dist Tot Dist Heading (true) Name
O CTY VOR - 0 ft / 0 m 29.59903˚ -83.04872˚ - 0 nm - CROSS CITY VORTAC
STL VOR - 0 ft / 0 m 38.86069˚ -90.48236˚ 666 nm 666 nm 328° / 324° ST LOUIS VORTAC
IOW VOR - 0 ft / 0 m 41.51897˚ -91.61325˚ 167 nm 834 nm 342° / 342° IOWA CITY VORTAC
O ALO VOR - 0 ft / 0 m 42.55647˚ -92.39894˚ 71 nm 906 nm 331° / 330° WATERLOO VORTAC

Altitude Profile

Advertisement - Login to hide

Weather


0- 5 10 15 20 25 30 35+ Temperature / ° C

Clouds and Precipitation
Forecast for 2018-05-27 06:00 UTC. Updated 39 minutes ago

Ground ~20,000 ft ~40,000 ft Winds

KCTY

Details ICAO KCTY (CTY)
Name Cross City
Region United States
Timezone America/New_York (UTC-4.0)
Stats Elevation 42 ft / 13 m (AMSL)
Location 29.635517° -83.104750°
Runways 2
Magnetic Variation 5.465° W

METAR

KCTY 270535Z AUTO 08004KT 10SM OVC080 24/21 A2988 RMK AO2 T02390206

Decode

TAF

Not found

Departure Runways

ID Width Length Bearing (true) Bearing (mag) Surface Threshold Offset Overrun Length
04 75 ft / 23 m 5,011 ft / 1,527 m 43.47° 48.94° Asphalt 0 ft / 0 m 0 ft / 0 m
13 100 ft / 30 m 5,005 ft / 1,526 m 133.76° 139.23° Asphalt 0 ft / 0 m 0 ft / 0 m
22 75 ft / 23 m 5,011 ft / 1,527 m 223.48° 228.95° Asphalt 0 ft / 0 m 0 ft / 0 m
31 100 ft / 30 m 5,005 ft / 1,526 m 313.76° 319.23° Asphalt 0 ft / 0 m 0 ft / 0 m

KALO

Details ICAO KALO (ALO)
Name WATERLOO RGNL
Region United States
Timezone America/Chicago (UTC-5.0)
Stats Elevation 873 ft / 266 m (AMSL)
Location 42.556708° -92.400376°
Runways 3
Magnetic Variation 0.268° W

METAR

KALO 270454Z AUTO 18004KT 10SM CLR 24/21 A2977 RMK AO2 SLP072 T02390206

Decode

TAF

KALO 262324Z 2700/2724 24004KT P6SM FEW250 FM272000 16006KT P6SM FEW250

Decode

Destination Runways

ID Width Length Bearing (true) Bearing (mag) Surface Threshold Offset Overrun Length
06 129 ft / 39 m 5,393 ft / 1,644 m 67.71° 67.98° Asphalt 0 ft / 0 m 0 ft / 0 m
12 150 ft / 46 m 8,392 ft / 2,558 m 127.88° 128.15° Asphalt 0 ft / 0 m 0 ft / 0 m
18 150 ft / 46 m 6,009 ft / 1,832 m 187.76° 188.03° Asphalt 0 ft / 0 m 0 ft / 0 m
24 129 ft / 39 m 5,393 ft / 1,644 m 247.73° 248.00° Asphalt 0 ft / 0 m 0 ft / 0 m
30 150 ft / 46 m 8,392 ft / 2,558 m 307.89° 308.16° Asphalt 0 ft / 0 m 0 ft / 0 m
36 150 ft / 46 m 6,009 ft / 1,832 m 7.76° 8.03° Asphalt 0 ft / 0 m 0 ft / 0 m

Approach Navaids

Runway Type Ident Frequency Range Bearing (true) Bearing (mag) Slope Elevation
12 Localiser IALO 111.70 MHz 18 nm / 33 km 127.91° 128.17° - 873 ft / 266 m (AMSL)
12 Glidescope IALO 111.70 MHz 10 nm / 19 km 127.88° 128.15° 3.00° 872 ft / 266 m (AMSL)